sensor_id;sensor_type;location;lat;lon;timestamp;P1;durP1;ratioP1;P2;durP2;ratioP2
49978;SDS011;35869;50.990;6.962;2024-01-06T00:02:18;4.55;;;4.10;;
49978;SDS011;35869;50.990;6.962;2024-01-06T00:07:18;7.60;;;4.63;;
49978;SDS011;35869;50.990;6.962;2024-01-06T00:12:18;5.63;;;4.30;;
49978;SDS011;35869;50.990;6.962;2024-01-06T00:17:18;6.90;;;4.70;;
49978;SDS011;35869;50.990;6.962;2024-01-06T00:22:18;6.13;;;4.82;;
49978;SDS011;35869;50.990;6.962;2024-01-06T00:27:18;10.10;;;6.05;;
49978;SDS011;35869;50.990;6.962;2024-01-06T00:32:19;7.55;;;5.60;;
49978;SDS011;35869;50.990;6.962;2024-01-06T00:37:19;7.50;;;6.25;;
49978;SDS011;35869;50.990;6.962;2024-01-06T00:42:19;8.48;;;6.57;;
49978;SDS011;35869;50.990;6.962;2024-01-06T00:47:19;10.43;;;7.32;;
49978;SDS011;35869;50.990;6.962;2024-01-06T00:52:20;10.32;;;6.75;;
49978;SDS011;35869;50.990;6.962;2024-01-06T00:57:20;10.35;;;7.68;;
49978;SDS011;35869;50.990;6.962;2024-01-06T01:02:20;8.88;;;7.95;;
49978;SDS011;35869;50.990;6.962;2024-01-06T01:07:20;8.10;;;7.22;;
49978;SDS011;35869;50.990;6.962;2024-01-06T01:12:20;11.45;;;8.10;;
49978;SDS011;35869;50.990;6.962;2024-01-06T01:17:21;8.38;;;6.88;;
49978;SDS011;35869;50.990;6.962;2024-01-06T01:22:21;8.35;;;7.43;;
49978;SDS011;35869;50.990;6.962;2024-01-06T01:27:21;11.63;;;8.38;;
49978;SDS011;35869;50.990;6.962;2024-01-06T01:32:21;11.80;;;9.20;;
49978;SDS011;35869;50.990;6.962;2024-01-06T01:37:21;12.30;;;8.95;;
49978;SDS011;35869;50.990;6.962;2024-01-06T01:42:22;13.07;;;9.45;;
49978;SDS011;35869;50.990;6.962;2024-01-06T01:47:22;11.55;;;9.23;;
49978;SDS011;35869;50.990;6.962;2024-01-06T01:52:22;13.68;;;9.20;;
49978;SDS011;35869;50.990;6.962;2024-01-06T01:57:23;12.05;;;9.05;;
49978;SDS011;35869;50.990;6.962;2024-01-06T02:02:25;12.38;;;10.15;;
49978;SDS011;35869;50.990;6.962;2024-01-06T02:07:25;17.07;;;11.27;;
49978;SDS011;35869;50.990;6.962;2024-01-06T02:12:25;14.63;;;10.95;;
49978;SDS011;35869;50.990;6.962;2024-01-06T02:17:25;16.17;;;11.48;;
49978;SDS011;35869;50.990;6.962;2024-01-06T02:22:26;15.40;;;11.35;;
49978;SDS011;35869;50.990;6.962;2024-01-06T02:27:26;15.98;;;11.18;;
49978;SDS011;35869;50.990;6.962;2024-01-06T02:32:26;15.32;;;11.48;;
49978;SDS011;35869;50.990;6.962;2024-01-06T02:37:26;17.98;;;12.18;;
49978;SDS011;35869;50.990;6.962;2024-01-06T02:42:26;16.45;;;13.00;;
49978;SDS011;35869;50.990;6.962;2024-01-06T02:47:27;15.85;;;12.00;;
49978;SDS011;35869;50.990;6.962;2024-01-06T02:52:27;15.05;;;12.57;;
49978;SDS011;35869;50.990;6.962;2024-01-06T02:57:30;15.98;;;12.73;;
49978;SDS011;35869;50.990;6.962;2024-01-06T03:02:31;14.52;;;11.57;;
49978;SDS011;35869;50.990;6.962;2024-01-06T03:07:31;16.45;;;11.43;;
49978;SDS011;35869;50.990;6.962;2024-01-06T03:12:31;15.10;;;11.63;;
49978;SDS011;35869;50.990;6.962;2024-01-06T03:17:31;14.70;;;10.70;;
49978;SDS011;35869;50.990;6.962;2024-01-06T03:22:32;18.13;;;13.38;;
49978;SDS011;35869;50.990;6.962;2024-01-06T03:27:32;18.75;;;13.63;;
49978;SDS011;35869;50.990;6.962;2024-01-06T03:32:32;18.55;;;13.88;;
49978;SDS011;35869;50.990;6.962;2024-01-06T03:37:32;16.17;;;12.05;;
49978;SDS011;35869;50.990;6.962;2024-01-06T03:42:32;17.07;;;12.50;;
49978;SDS011;35869;50.990;6.962;2024-01-06T03:47:33;16.95;;;11.95;;
49978;SDS011;35869;50.990;6.962;2024-01-06T03:52:33;19.63;;;13.15;;
49978;SDS011;35869;50.990;6.962;2024-01-06T03:57:33;20.83;;;15.50;;
49978;SDS011;35869;50.990;6.962;2024-01-06T04:02:33;17.63;;;13.13;;
49978;SDS011;35869;50.990;6.962;2024-01-06T04:07:34;21.05;;;13.95;;
49978;SDS011;35869;50.990;6.962;2024-01-06T04:12:34;23.02;;;15.50;;
49978;SDS011;35869;50.990;6.962;2024-01-06T04:17:34;25.27;;;17.20;;
49978;SDS011;35869;50.990;6.962;2024-01-06T04:22:34;25.55;;;17.98;;
49978;SDS011;35869;50.990;6.962;2024-01-06T04:27:34;29.13;;;18.10;;
49978;SDS011;35869;50.990;6.962;2024-01-06T04:32:34;29.70;;;18.02;;
49978;SDS011;35869;50.990;6.962;2024-01-06T04:37:35;31.00;;;18.98;;
49978;SDS011;35869;50.990;6.962;2024-01-06T04:42:35;34.65;;;21.27;;
49978;SDS011;35869;50.990;6.962;2024-01-06T04:47:35;33.53;;;23.15;;
49978;SDS011;35869;50.990;6.962;2024-01-06T04:52:35;30.85;;;21.20;;
49978;SDS011;35869;50.990;6.962;2024-01-06T04:57:36;33.60;;;18.90;;
49978;SDS011;35869;50.990;6.962;2024-01-06T05:02:36;30.38;;;20.15;;
49978;SDS011;35869;50.990;6.962;2024-01-06T05:07:37;37.72;;;21.92;;
49978;SDS011;35869;50.990;6.962;2024-01-06T05:12:37;34.97;;;22.63;;
49978;SDS011;35869;50.990;6.962;2024-01-06T05:17:37;18.60;;;12.50;;
49978;SDS011;35869;50.990;6.962;2024-01-06T05:22:37;22.75;;;16.33;;
49978;SDS011;35869;50.990;6.962;2024-01-06T05:27:37;17.10;;;11.30;;
49978;SDS011;35869;50.990;6.962;2024-01-06T05:32:38;19.50;;;12.13;;
49978;SDS011;35869;50.990;6.962;2024-01-06T05:37:38;19.67;;;11.80;;
49978;SDS011;35869;50.990;6.962;2024-01-06T05:42:38;19.92;;;13.77;;
49978;SDS011;35869;50.990;6.962;2024-01-06T05:47:39;16.77;;;11.87;;
49978;SDS011;35869;50.990;6.962;2024-01-06T05:52:39;21.13;;;13.68;;
49978;SDS011;35869;50.990;6.962;2024-01-06T05:57:39;20.85;;;14.70;;
49978;SDS011;35869;50.990;6.962;2024-01-06T06:02:39;21.30;;;14.65;;
49978;SDS011;35869;50.990;6.962;2024-01-06T06:07:39;18.55;;;13.32;;
49978;SDS011;35869;50.990;6.962;2024-01-06T06:12:40;12.88;;;9.55;;
49978;SDS011;35869;50.990;6.962;2024-01-06T06:17:40;12.90;;;9.30;;
49978;SDS011;35869;50.990;6.962;2024-01-06T06:22:40;11.40;;;8.32;;
49978;SDS011;35869;50.990;6.962;2024-01-06T06:27:40;23.50;;;14.63;;
49978;SDS011;35869;50.990;6.962;2024-01-06T06:32:40;14.73;;;9.65;;
49978;SDS011;35869;50.990;6.962;2024-01-06T06:37:41;15.05;;;9.63;;
49978;SDS011;35869;50.990;6.962;2024-01-06T06:42:41;16.67;;;11.13;;
49978;SDS011;35869;50.990;6.962;2024-01-06T06:47:41;16.27;;;10.70;;
49978;SDS011;35869;50.990;6.962;2024-01-06T06:52:41;21.08;;;14.23;;
49978;SDS011;35869;50.990;6.962;2024-01-06T06:57:42;16.27;;;10.73;;
49978;SDS011;35869;50.990;6.962;2024-01-06T07:02:42;17.30;;;11.20;;
49978;SDS011;35869;50.990;6.962;2024-01-06T07:07:42;12.50;;;8.57;;
49978;SDS011;35869;50.990;6.962;2024-01-06T07:12:43;13.05;;;8.55;;
49978;SDS011;35869;50.990;6.962;2024-01-06T07:17:43;13.60;;;9.90;;
49978;SDS011;35869;50.990;6.962;2024-01-06T07:22:43;13.98;;;8.88;;
49978;SDS011;35869;50.990;6.962;2024-01-06T07:27:43;15.45;;;11.18;;
49978;SDS011;35869;50.990;6.962;2024-01-06T07:32:43;15.57;;;10.25;;
49978;SDS011;35869;50.990;6.962;2024-01-06T07:37:44;16.45;;;10.73;;
49978;SDS011;35869;50.990;6.962;2024-01-06T07:42:44;20.08;;;11.40;;
49978;SDS011;35869;50.990;6.962;2024-01-06T07:47:44;17.90;;;11.53;;
49978;SDS011;35869;50.990;6.962;2024-01-06T07:52:44;19.95;;;11.63;;
49978;SDS011;35869;50.990;6.962;2024-01-06T07:57:45;16.88;;;11.82;;
49978;SDS011;35869;50.990;6.962;2024-01-06T08:02:45;19.77;;;11.97;;
49978;SDS011;35869;50.990;6.962;2024-01-06T08:07:45;19.52;;;11.43;;
49978;SDS011;35869;50.990;6.962;2024-01-06T08:12:45;17.40;;;11.30;;
49978;SDS011;35869;50.990;6.962;2024-01-06T08:17:45;16.30;;;10.68;;
49978;SDS011;35869;50.990;6.962;2024-01-06T08:22:46;14.55;;;9.48;;
49978;SDS011;35869;50.990;6.962;2024-01-06T08:27:46;16.33;;;11.43;;
49978;SDS011;35869;50.990;6.962;2024-01-06T08:32:46;17.45;;;11.10;;
49978;SDS011;35869;50.990;6.962;2024-01-06T08:37:47;15.98;;;10.13;;
49978;SDS011;35869;50.990;6.962;2024-01-06T08:42:47;13.97;;;9.10;;
49978;SDS011;35869;50.990;6.962;2024-01-06T08:47:47;17.10;;;11.40;;
49978;SDS011;35869;50.990;6.962;2024-01-06T08:52:47;14.60;;;9.35;;
49978;SDS011;35869;50.990;6.962;2024-01-06T08:57:48;20.45;;;11.13;;
49978;SDS011;35869;50.990;6.962;2024-01-06T09:02:48;14.52;;;9.82;;
49978;SDS011;35869;50.990;6.962;2024-01-06T09:07:48;20.45;;;11.02;;
49978;SDS011;35869;50.990;6.962;2024-01-06T09:12:48;18.65;;;11.13;;
49978;SDS011;35869;50.990;6.962;2024-01-06T09:17:48;18.48;;;11.13;;
49978;SDS011;35869;50.990;6.962;2024-01-06T09:22:49;12.93;;;8.20;;
49978;SDS011;35869;50.990;6.962;2024-01-06T09:27:49;17.97;;;10.63;;
49978;SDS011;35869;50.990;6.962;2024-01-06T09:32:49;16.67;;;10.50;;
49978;SDS011;35869;50.990;6.962;2024-01-06T09:37:49;14.82;;;9.30;;
49978;SDS011;35869;50.990;6.962;2024-01-06T09:42:50;16.48;;;10.15;;
49978;SDS011;35869;50.990;6.962;2024-01-06T09:47:51;13.93;;;9.73;;
49978;SDS011;35869;50.990;6.962;2024-01-06T09:52:51;17.80;;;11.00;;
49978;SDS011;35869;50.990;6.962;2024-01-06T09:57:53;17.02;;;10.25;;
49978;SDS011;35869;50.990;6.962;2024-01-06T10:07:53;13.20;;;9.68;;
49978;SDS011;35869;50.990;6.962;2024-01-06T10:12:54;16.48;;;9.52;;
49978;SDS011;35869;50.990;6.962;2024-01-06T10:17:54;17.95;;;10.88;;
49978;SDS011;35869;50.990;6.962;2024-01-06T10:22:54;17.13;;;10.90;;
49978;SDS011;35869;50.990;6.962;2024-01-06T10:27:54;16.30;;;10.70;;
49978;SDS011;35869;50.990;6.962;2024-01-06T10:32:55;17.17;;;11.15;;
49978;SDS011;35869;50.990;6.962;2024-01-06T10:38:01;17.55;;;11.43;;
49978;SDS011;35869;50.990;6.962;2024-01-06T10:43:07;14.80;;;9.95;;
49978;SDS011;35869;50.990;6.962;2024-01-06T10:48:12;14.05;;;9.60;;
49978;SDS011;35869;50.990;6.962;2024-01-06T10:53:18;15.98;;;9.63;;
49978;SDS011;35869;50.990;6.962;2024-01-06T10:58:26;17.48;;;10.05;;
49978;SDS011;35869;50.990;6.962;2024-01-06T11:03:30;17.75;;;11.35;;
49978;SDS011;35869;50.990;6.962;2024-01-06T11:08:30;18.92;;;11.38;;
49978;SDS011;35869;50.990;6.962;2024-01-06T11:13:33;13.57;;;9.15;;
49978;SDS011;35869;50.990;6.962;2024-01-06T11:23:33;17.75;;;10.50;;
49978;SDS011;35869;50.990;6.962;2024-01-06T11:28:46;14.80;;;9.70;;
49978;SDS011;35869;50.990;6.962;2024-01-06T11:44:53;19.30;;;11.65;;
49978;SDS011;35869;50.990;6.962;2024-01-06T11:50:02;19.27;;;12.30;;
49978;SDS011;35869;50.990;6.962;2024-01-06T11:55:03;17.95;;;12.07;;
49978;SDS011;35869;50.990;6.962;2024-01-06T12:00:05;17.25;;;10.57;;
49978;SDS011;35869;50.990;6.962;2024-01-06T12:05:06;21.52;;;11.63;;
49978;SDS011;35869;50.990;6.962;2024-01-06T12:10:12;23.05;;;13.48;;
49978;SDS011;35869;50.990;6.962;2024-01-06T12:15:13;25.35;;;13.88;;
49978;SDS011;35869;50.990;6.962;2024-01-06T12:20:14;23.70;;;13.45;;
49978;SDS011;35869;50.990;6.962;2024-01-06T12:25:14;21.40;;;12.27;;
49978;SDS011;35869;50.990;6.962;2024-01-06T12:30:16;16.97;;;10.93;;
49978;SDS011;35869;50.990;6.962;2024-01-06T12:35:19;22.25;;;12.82;;
49978;SDS011;35869;50.990;6.962;2024-01-06T12:40:20;19.95;;;12.50;;
49978;SDS011;35869;50.990;6.962;2024-01-06T12:45:20;20.27;;;13.27;;
49978;SDS011;35869;50.990;6.962;2024-01-06T12:50:20;27.70;;;14.48;;
49978;SDS011;35869;50.990;6.962;2024-01-06T12:55:20;25.05;;;14.02;;
49978;SDS011;35869;50.990;6.962;2024-01-06T13:00:20;24.33;;;15.88;;
49978;SDS011;35869;50.990;6.962;2024-01-06T13:05:21;26.63;;;16.40;;
49978;SDS011;35869;50.990;6.962;2024-01-06T13:10:21;22.10;;;14.13;;
49978;SDS011;35869;50.990;6.962;2024-01-06T13:15:21;23.67;;;13.85;;
49978;SDS011;35869;50.990;6.962;2024-01-06T13:20:22;19.20;;;12.03;;
49978;SDS011;35869;50.990;6.962;2024-01-06T13:25:22;19.65;;;11.68;;
49978;SDS011;35869;50.990;6.962;2024-01-06T13:30:22;19.20;;;12.23;;
49978;SDS011;35869;50.990;6.962;2024-01-06T13:35:22;18.30;;;11.45;;
49978;SDS011;35869;50.990;6.962;2024-01-06T13:40:23;20.90;;;12.53;;
49978;SDS011;35869;50.990;6.962;2024-01-06T13:45:23;19.90;;;12.30;;
49978;SDS011;35869;50.990;6.962;2024-01-06T13:50:24;22.67;;;13.30;;
49978;SDS011;35869;50.990;6.962;2024-01-06T13:55:24;27.02;;;16.00;;
49978;SDS011;35869;50.990;6.962;2024-01-06T14:00:24;26.67;;;16.50;;
49978;SDS011;35869;50.990;6.962;2024-01-06T14:05:24;29.15;;;16.75;;
49978;SDS011;35869;50.990;6.962;2024-01-06T14:10:24;27.33;;;18.00;;
49978;SDS011;35869;50.990;6.962;2024-01-06T14:15:25;27.98;;;17.10;;
49978;SDS011;35869;50.990;6.962;2024-01-06T14:20:25;25.40;;;16.60;;
49978;SDS011;35869;50.990;6.962;2024-01-06T14:25:25;27.17;;;17.25;;
49978;SDS011;35869;50.990;6.962;2024-01-06T14:30:25;32.83;;;19.38;;
49978;SDS011;35869;50.990;6.962;2024-01-06T14:35:25;35.45;;;19.85;;
49978;SDS011;35869;50.990;6.962;2024-01-06T14:40:26;35.57;;;20.87;;
49978;SDS011;35869;50.990;6.962;2024-01-06T14:45:26;45.70;;;25.63;;
49978;SDS011;35869;50.990;6.962;2024-01-06T14:50:26;42.83;;;25.05;;
49978;SDS011;35869;50.990;6.962;2024-01-06T14:55:26;51.40;;;27.92;;
49978;SDS011;35869;50.990;6.962;2024-01-06T15:00:27;43.63;;;25.63;;
49978;SDS011;35869;50.990;6.962;2024-01-06T15:05:27;44.50;;;24.52;;
49978;SDS011;35869;50.990;6.962;2024-01-06T15:10:27;47.15;;;26.73;;
49978;SDS011;35869;50.990;6.962;2024-01-06T15:15:27;49.40;;;27.90;;
49978;SDS011;35869;50.990;6.962;2024-01-06T15:20:27;55.22;;;33.95;;
49978;SDS011;35869;50.990;6.962;2024-01-06T15:25:28;52.08;;;31.55;;
49978;SDS011;35869;50.990;6.962;2024-01-06T15:30:28;40.53;;;24.17;;
49978;SDS011;35869;50.990;6.962;2024-01-06T15:35:28;33.50;;;22.67;;
49978;SDS011;35869;50.990;6.962;2024-01-06T15:40:28;38.63;;;23.17;;
49978;SDS011;35869;50.990;6.962;2024-01-06T15:45:29;30.17;;;19.58;;
49978;SDS011;35869;50.990;6.962;2024-01-06T15:50:29;36.40;;;21.00;;
49978;SDS011;35869;50.990;6.962;2024-01-06T15:55:29;40.80;;;26.63;;
49978;SDS011;35869;50.990;6.962;2024-01-06T16:00:29;38.60;;;24.67;;
49978;SDS011;35869;50.990;6.962;2024-01-06T16:05:29;36.38;;;22.38;;
49978;SDS011;35869;50.990;6.962;2024-01-06T16:10:30;40.67;;;25.67;;
49978;SDS011;35869;50.990;6.962;2024-01-06T16:15:30;37.75;;;24.58;;
49978;SDS011;35869;50.990;6.962;2024-01-06T16:20:30;36.40;;;23.95;;
49978;SDS011;35869;50.990;6.962;2024-01-06T16:25:30;34.70;;;22.40;;
49978;SDS011;35869;50.990;6.962;2024-01-06T16:30:31;39.15;;;25.50;;
49978;SDS011;35869;50.990;6.962;2024-01-06T16:35:31;40.00;;;24.42;;
49978;SDS011;35869;50.990;6.962;2024-01-06T16:40:31;36.38;;;24.30;;
49978;SDS011;35869;50.990;6.962;2024-01-06T16:45:31;29.98;;;19.60;;
49978;SDS011;35869;50.990;6.962;2024-01-06T16:50:31;39.72;;;24.13;;
49978;SDS011;35869;50.990;6.962;2024-01-06T16:55:32;32.95;;;23.80;;
49978;SDS011;35869;50.990;6.962;2024-01-06T17:00:32;34.70;;;23.37;;
49978;SDS011;35869;50.990;6.962;2024-01-06T17:05:32;36.55;;;23.27;;
49978;SDS011;35869;50.990;6.962;2024-01-06T17:10:32;39.95;;;24.38;;
49978;SDS011;35869;50.990;6.962;2024-01-06T17:15:33;36.80;;;23.98;;
49978;SDS011;35869;50.990;6.962;2024-01-06T17:20:33;49.90;;;27.80;;
49978;SDS011;35869;50.990;6.962;2024-01-06T17:25:33;40.35;;;25.70;;
49978;SDS011;35869;50.990;6.962;2024-01-06T17:30:33;43.22;;;26.85;;
49978;SDS011;35869;50.990;6.962;2024-01-06T17:35:34;33.45;;;20.00;;
49978;SDS011;35869;50.990;6.962;2024-01-06T17:40:34;38.10;;;22.98;;
49978;SDS011;35869;50.990;6.962;2024-01-06T17:45:34;36.95;;;24.55;;
49978;SDS011;35869;50.990;6.962;2024-01-06T17:50:34;34.55;;;22.55;;
49978;SDS011;35869;50.990;6.962;2024-01-06T17:55:34;32.33;;;21.58;;
49978;SDS011;35869;50.990;6.962;2024-01-06T18:00:35;35.88;;;22.55;;
49978;SDS011;35869;50.990;6.962;2024-01-06T18:05:35;33.83;;;22.52;;
49978;SDS011;35869;50.990;6.962;2024-01-06T18:10:35;32.72;;;20.35;;
49978;SDS011;35869;50.990;6.962;2024-01-06T18:15:37;28.25;;;18.17;;
49978;SDS011;35869;50.990;6.962;2024-01-06T18:20:37;29.65;;;19.50;;
49978;SDS011;35869;50.990;6.962;2024-01-06T18:25:38;33.70;;;21.33;;
49978;SDS011;35869;50.990;6.962;2024-01-06T18:30:38;31.60;;;21.42;;
49978;SDS011;35869;50.990;6.962;2024-01-06T18:35:38;34.60;;;21.10;;
49978;SDS011;35869;50.990;6.962;2024-01-06T18:40:38;34.63;;;20.97;;
49978;SDS011;35869;50.990;6.962;2024-01-06T18:45:39;31.15;;;19.25;;
49978;SDS011;35869;50.990;6.962;2024-01-06T18:50:39;31.08;;;19.13;;
49978;SDS011;35869;50.990;6.962;2024-01-06T18:55:39;34.05;;;20.40;;
49978;SDS011;35869;50.990;6.962;2024-01-06T19:00:40;33.35;;;19.20;;
49978;SDS011;35869;50.990;6.962;2024-01-06T19:05:40;28.98;;;16.58;;
49978;SDS011;35869;50.990;6.962;2024-01-06T19:10:41;31.70;;;19.40;;
49978;SDS011;35869;50.990;6.962;2024-01-06T19:15:41;28.67;;;18.93;;
49978;SDS011;35869;50.990;6.962;2024-01-06T19:20:42;28.55;;;17.98;;
49978;SDS011;35869;50.990;6.962;2024-01-06T19:25:43;31.55;;;21.75;;
49978;SDS011;35869;50.990;6.962;2024-01-06T19:30:44;28.42;;;19.50;;
49978;SDS011;35869;50.990;6.962;2024-01-06T19:35:44;25.73;;;17.63;;
49978;SDS011;35869;50.990;6.962;2024-01-06T19:40:44;31.67;;;19.48;;
49978;SDS011;35869;50.990;6.962;2024-01-06T19:45:44;26.60;;;18.23;;
49978;SDS011;35869;50.990;6.962;2024-01-06T19:50:45;23.77;;;15.98;;
49978;SDS011;35869;50.990;6.962;2024-01-06T19:55:45;25.83;;;17.40;;
49978;SDS011;35869;50.990;6.962;2024-01-06T20:00:45;26.37;;;18.40;;
49978;SDS011;35869;50.990;6.962;2024-01-06T20:05:46;23.77;;;16.57;;
49978;SDS011;35869;50.990;6.962;2024-01-06T20:10:46;26.65;;;17.25;;
49978;SDS011;35869;50.990;6.962;2024-01-06T20:15:46;28.00;;;18.38;;
49978;SDS011;35869;50.990;6.962;2024-01-06T20:20:47;25.95;;;17.60;;
49978;SDS011;35869;50.990;6.962;2024-01-06T20:25:47;27.45;;;17.73;;
49978;SDS011;35869;50.990;6.962;2024-01-06T20:30:47;24.83;;;17.70;;
49978;SDS011;35869;50.990;6.962;2024-01-06T20:35:48;27.63;;;18.70;;
49978;SDS011;35869;50.990;6.962;2024-01-06T20:40:48;27.67;;;17.92;;
49978;SDS011;35869;50.990;6.962;2024-01-06T20:45:49;28.05;;;18.70;;
49978;SDS011;35869;50.990;6.962;2024-01-06T20:50:49;21.73;;;15.90;;
49978;SDS011;35869;50.990;6.962;2024-01-06T20:55:49;26.73;;;17.87;;
49978;SDS011;35869;50.990;6.962;2024-01-06T21:00:50;29.15;;;19.23;;
49978;SDS011;35869;50.990;6.962;2024-01-06T21:05:50;25.38;;;18.25;;
49978;SDS011;35869;50.990;6.962;2024-01-06T21:10:50;29.05;;;19.52;;
49978;SDS011;35869;50.990;6.962;2024-01-06T21:15:51;31.05;;;21.08;;
49978;SDS011;35869;50.990;6.962;2024-01-06T21:20:52;31.50;;;19.80;;
49978;SDS011;35869;50.990;6.962;2024-01-06T21:25:52;28.13;;;19.50;;
49978;SDS011;35869;50.990;6.962;2024-01-06T21:30:52;31.27;;;20.17;;
49978;SDS011;35869;50.990;6.962;2024-01-06T21:35:53;31.42;;;22.13;;
49978;SDS011;35869;50.990;6.962;2024-01-06T21:45:54;35.33;;;22.85;;
49978;SDS011;35869;50.990;6.962;2024-01-06T21:50:54;37.55;;;23.70;;
49978;SDS011;35869;50.990;6.962;2024-01-06T21:55:54;38.97;;;24.45;;
49978;SDS011;35869;50.990;6.962;2024-01-06T22:00:54;38.67;;;24.02;;
49978;SDS011;35869;50.990;6.962;2024-01-06T22:05:57;40.67;;;24.67;;
49978;SDS011;35869;50.990;6.962;2024-01-06T22:10:57;36.20;;;23.00;;
49978;SDS011;35869;50.990;6.962;2024-01-06T22:15:57;35.08;;;23.08;;
49978;SDS011;35869;50.990;6.962;2024-01-06T22:20:58;32.78;;;21.88;;
49978;SDS011;35869;50.990;6.962;2024-01-06T22:25:59;32.45;;;21.05;;
49978;SDS011;35869;50.990;6.962;2024-01-06T22:30:59;37.83;;;21.60;;
49978;SDS011;35869;50.990;6.962;2024-01-06T22:35:59;35.22;;;22.38;;
49978;SDS011;35869;50.990;6.962;2024-01-06T22:40:59;31.50;;;20.40;;
49978;SDS011;35869;50.990;6.962;2024-01-06T22:45:59;39.10;;;23.25;;
49978;SDS011;35869;50.990;6.962;2024-01-06T22:51:00;35.40;;;23.40;;
49978;SDS011;35869;50.990;6.962;2024-01-06T22:56:00;39.83;;;24.55;;
49978;SDS011;35869;50.990;6.962;2024-01-06T23:01:00;33.75;;;22.27;;
49978;SDS011;35869;50.990;6.962;2024-01-06T23:06:01;38.27;;;23.00;;
49978;SDS011;35869;50.990;6.962;2024-01-06T23:11:01;37.22;;;23.95;;
49978;SDS011;35869;50.990;6.962;2024-01-06T23:16:02;40.00;;;23.85;;
49978;SDS011;35869;50.990;6.962;2024-01-06T23:21:02;42.13;;;25.53;;
49978;SDS011;35869;50.990;6.962;2024-01-06T23:26:03;35.10;;;23.37;;
49978;SDS011;35869;50.990;6.962;2024-01-06T23:31:03;28.43;;;19.70;;
49978;SDS011;35869;50.990;6.962;2024-01-06T23:36:03;33.42;;;20.02;;
49978;SDS011;35869;50.990;6.962;2024-01-06T23:41:04;28.77;;;19.52;;
49978;SDS011;35869;50.990;6.962;2024-01-06T23:46:04;31.15;;;19.13;;
49978;SDS011;35869;50.990;6.962;2024-01-06T23:51:04;29.83;;;19.77;;
49978;SDS011;35869;50.990;6.962;2024-01-06T23:56:04;26.40;;;18.23;;
